Time;durP1;ratioP1;P1;durP2;ratioP2;P2;SDS_P1;SDS_P2;PMS_P1;PMS_P2;Temp;Humidity;BMP_temperature;BMP_pressure;BME280_temperature;BME280_humidity;BME280_pressure;Samples;Min_cycle;Max_cycle;Signal;HPM_P1;HPM_P2
2022/12/08 00:00:01;;;;;;;48.38;28.20;;;;;;;;;;6245352;23;20007;-64
2022/12/08 00:02:27;;;;;;;44.85;27.35;;;;;;;;;;6244853;23;20031;-65
2022/12/08 00:10:23;;;;;;;47.53;27.02;;;;;;;;;;6244784;23;20407;-64
2022/12/08 00:12:49;;;;;;;52.05;28.67;;;;;;;;;;6243744;23;20015;-64
2022/12/08 00:15:15;;;;;;;48.83;27.70;;;;;;;;;;6244907;23;20011;-64
2022/12/08 00:17:41;;;;;;;46.20;26.08;;;;;;;;;;6244661;23;20390;-64
2022/12/08 00:20:07;;;;;;;45.28;25.38;;;;;;;;;;6244517;23;20000;-64
2022/12/08 00:22:33;;;;;;;49.05;26.92;;;;;;;;;;6244480;23;20069;-64
2022/12/08 00:24:59;;;;;;;55.45;27.42;;;;;;;;;;6244584;23;20046;-64
2022/12/08 00:27:26;;;;;;;51.05;27.08;;;;;;;;;;6244252;23;20478;-64
2022/12/08 00:29:52;;;;;;;53.65;28.95;;;;;;;;;;6244388;23;20062;-64
2022/12/08 00:32:18;;;;;;;80.57;28.20;;;;;;;;;;6244592;23;20027;-64
2022/12/08 00:34:44;;;;;;;79.47;29.27;;;;;;;;;;6244152;23;20083;-64
2022/12/08 00:37:10;;;;;;;55.17;27.58;;;;;;;;;;6244765;23;20338;-64
2022/12/08 00:39:36;;;;;;;51.15;25.13;;;;;;;;;;6243850;23;20469;-64
2022/12/08 00:42:11;;;;;;;41.10;25.60;;;;;;;;;;6243980;23;20056;-64
2022/12/08 00:44:37;;;;;;;44.88;24.45;;;;;;;;;;6244405;23;20004;-64
2022/12/08 00:47:04;;;;;;;75.57;28.00;;;;;;;;;;6244549;23;20075;-63
2022/12/08 00:49:30;;;;;;;50.35;23.30;;;;;;;;;;6244516;23;20012;-64
2022/12/08 00:51:56;;;;;;;92.03;29.25;;;;;;;;;;6244143;23;20485;-64
2022/12/08 00:54:22;;;;;;;59.42;25.75;;;;;;;;;;6244514;23;20007;-64
2022/12/08 00:56:48;;;;;;;84.50;26.48;;;;;;;;;;6243837;23;20004;-63
2022/12/08 00:59:15;;;;;;;180.15;32.85;;;;;;;;;;6244480;23;20382;-64
2022/12/08 01:01:43;;;;;;;71.90;26.48;;;;;;;;;;6244069;23;19996;-64
2022/12/08 01:04:11;;;;;;;177.40;30.45;;;;;;;;;;6244342;23;20015;-64
2022/12/08 01:06:38;;;;;;;137.52;28.08;;;;;;;;;;6244228;23;20064;-64
2022/12/08 01:09:05;;;;;;;172.25;30.48;;;;;;;;;;6244117;23;20319;-64
2022/12/08 01:11:31;;;;;;;212.13;32.67;;;;;;;;;;6244096;23;20007;-64
2022/12/08 01:13:58;;;;;;;205.05;31.50;;;;;;;;;;6243889;23;20040;-64
2022/12/08 01:16:25;;;;;;;159.68;30.60;;;;;;;;;;6244542;23;20000;-63
2022/12/08 01:18:51;;;;;;;124.22;26.63;;;;;;;;;;6244103;23;20000;-64
2022/12/08 01:21:18;;;;;;;136.52;27.15;;;;;;;;;;6244284;23;20075;-64
2022/12/08 01:23:44;;;;;;;66.90;27.95;;;;;;;;;;6243823;23;20027;-64
2022/12/08 01:26:11;;;;;;;70.68;27.77;;;;;;;;;;6244333;23;20031;-64
2022/12/08 01:28:37;;;;;;;54.22;27.88;;;;;;;;;;6244380;23;20323;-64
2022/12/08 01:31:04;;;;;;;76.55;28.17;;;;;;;;;;6244003;23;20004;-64
2022/12/08 01:33:31;;;;;;;60.72;25.98;;;;;;;;;;6244254;23;20086;-64
2022/12/08 01:36:01;;;;;;;95.72;27.17;;;;;;;;;;6244137;22;20019;-64
2022/12/08 01:38:28;;;;;;;76.43;26.92;;;;;;;;;;6243857;23;20512;-63
2022/12/08 01:40:54;;;;;;;91.72;26.52;;;;;;;;;;6244023;23;20003;-64
2022/12/08 01:43:20;;;;;;;54.95;22.77;;;;;;;;;;6244329;23;20032;-64
2022/12/08 01:45:46;;;;;;;59.75;22.58;;;;;;;;;;6244064;23;20007;-64
2022/12/08 01:48:18;;;;;;;82.43;23.27;;;;;;;;;;6244197;23;20032;-64
2022/12/08 01:50:46;;;;;;;72.00;21.70;;;;;;;;;;6243842;23;20484;-64
2022/12/08 01:53:15;;;;;;;59.78;21.15;;;;;;;;;;6245931;23;20394;-64
2022/12/08 01:55:44;;;;;;;42.08;21.05;;;;;;;;;;6246282;23;20338;-64
2022/12/08 01:58:16;;;;;;;66.47;21.58;;;;;;;;;;6245996;23;20075;-64
2022/12/08 02:00:42;;;;;;;38.75;21.63;;;;;;;;;;6245866;23;20011;-64
2022/12/08 02:03:12;;;;;;;36.75;20.85;;;;;;;;;;6245781;23;20012;-64
2022/12/08 02:05:39;;;;;;;49.42;24.25;;;;;;;;;;6245682;23;20008;-64
2022/12/08 02:08:07;;;;;;;47.42;26.90;;;;;;;;;;6245544;23;20004;-64
2022/12/08 02:10:35;;;;;;;59.30;25.77;;;;;;;;;;6246071;23;20008;-64
2022/12/08 02:13:01;;;;;;;42.10;23.92;;;;;;;;;;6245501;23;20008;-64
2022/12/08 02:15:50;;;;;;;43.42;23.30;;;;;;;;;;6245831;23;20010;-64
2022/12/08 02:18:16;;;;;;;41.58;22.50;;;;;;;;;;6245787;22;20058;-64
2022/12/08 02:21:03;;;;;;;42.58;23.33;;;;;;;;;;6245814;23;19996;-64
2022/12/08 02:23:36;;;;;;;43.75;22.33;;;;;;;;;;6245549;23;20027;-65
2022/12/08 02:26:05;;;;;;;35.80;21.35;;;;;;;;;;6245471;23;20040;-65
2022/12/08 02:28:48;;;;;;;37.53;21.83;;;;;;;;;;6245860;23;20027;-64
2022/12/08 02:31:32;;;;;;;38.13;20.83;;;;;;;;;;6245961;23;20019;-64
2022/12/08 02:34:17;;;;;;;39.80;21.63;;;;;;;;;;6245513;23;20030;-64
2022/12/08 02:36:48;;;;;;;37.55;21.75;;;;;;;;;;6245248;23;20026;-64
2022/12/08 02:39:14;;;;;;;37.28;20.80;;;;;;;;;;6245762;23;20090;-64
2022/12/08 02:41:46;;;;;;;35.90;21.67;;;;;;;;;;6245674;23;20011;-64
2022/12/08 02:44:33;;;;;;;37.63;21.13;;;;;;;;;;6245624;23;20004;-64
2022/12/08 02:47:02;;;;;;;40.90;20.77;;;;;;;;;;6245334;23;20000;-64
2022/12/08 02:49:31;;;;;;;31.45;19.65;;;;;;;;;;6245685;23;20139;-64
2022/12/08 02:52:09;;;;;;;33.25;19.00;;;;;;;;;;6245001;23;20004;-64
2022/12/08 02:54:36;;;;;;;32.78;18.90;;;;;;;;;;6245662;23;20027;-64
2022/12/08 02:57:08;;;;;;;32.75;20.42;;;;;;;;;;6245219;23;20007;-64
2022/12/08 02:59:40;;;;;;;36.30;22.50;;;;;;;;;;6245615;23;20334;-64
2022/12/08 03:02:06;;;;;;;31.17;18.67;;;;;;;;;;6245253;23;20008;-64
2022/12/08 03:04:46;;;;;;;36.95;20.45;;;;;;;;;;6244993;23;20434;-64
2022/12/08 03:07:17;;;;;;;35.30;20.27;;;;;;;;;;6245093;23;20573;-64
2022/12/08 03:09:53;;;;;;;38.47;22.25;;;;;;;;;;6245556;23;20026;-64
2022/12/08 03:12:32;;;;;;;32.03;20.42;;;;;;;;;;6245209;23;20495;-63
2022/12/08 03:15:00;;;;;;;42.05;20.40;;;;;;;;;;6245290;23;20008;-63
2022/12/08 03:17:28;;;;;;;29.30;17.98;;;;;;;;;;6245350;23;20063;-64
2022/12/08 03:19:56;;;;;;;30.67;18.90;;;;;;;;;;6244770;23;20014;-64
2022/12/08 03:22:24;;;;;;;33.25;19.92;;;;;;;;;;6245216;23;20350;-64
2022/12/08 03:24:51;;;;;;;38.42;20.35;;;;;;;;;;6245209;22;20004;-64
2022/12/08 03:27:26;;;;;;;28.63;17.48;;;;;;;;;;6245296;22;20008;-64
2022/12/08 03:29:53;;;;;;;26.75;15.82;;;;;;;;;;6245166;23;20008;-64
2022/12/08 03:32:25;;;;;;;27.52;14.82;;;;;;;;;;6244947;23;20026;-64
2022/12/08 03:34:52;;;;;;;21.95;13.30;;;;;;;;;;6244581;23;20000;-64
2022/12/08 03:37:18;;;;;;;22.73;13.15;;;;;;;;;;6245199;23;20346;-64
2022/12/08 03:39:44;;;;;;;25.48;13.50;;;;;;;;;;6245155;23;20071;-64
2022/12/08 03:42:10;;;;;;;22.15;12.90;;;;;;;;;;6244905;23;20000;-64
2022/12/08 03:44:36;;;;;;;27.35;13.63;;;;;;;;;;6245317;23;20008;-63
2022/12/08 03:47:02;;;;;;;21.70;12.18;;;;;;;;;;6244655;23;20008;-64
2022/12/08 03:49:29;;;;;;;25.52;12.30;;;;;;;;;;6244700;23;20342;-64
2022/12/08 03:51:55;;;;;;;16.63;11.18;;;;;;;;;;6244794;23;20028;-63
2022/12/08 03:54:21;;;;;;;26.08;14.88;;;;;;;;;;6244652;23;20008;-64
2022/12/08 03:56:47;;;;;;;23.75;13.85;;;;;;;;;;6244972;23;19996;-63
2022/12/08 03:59:13;;;;;;;22.75;13.63;;;;;;;;;;6245360;23;20372;-64
2022/12/08 04:01:39;;;;;;;23.25;15.32;;;;;;;;;;6245100;23;20001;-64
2022/12/08 04:04:05;;;;;;;31.08;15.73;;;;;;;;;;6244201;23;20083;-64
2022/12/08 04:06:31;;;;;;;26.88;14.27;;;;;;;;;;6245390;23;20091;-63
2022/12/08 04:08:57;;;;;;;24.38;13.40;;;;;;;;;;6245000;23;20004;-64
2022/12/08 04:11:23;;;;;;;19.88;12.30;;;;;;;;;;6245592;23;20007;-63
2022/12/08 04:13:50;;;;;;;21.10;11.50;;;;;;;;;;6244922;23;20431;-63
2022/12/08 04:16:21;;;;;;;18.55;12.27;;;;;;;;;;6245607;23;20075;-63
2022/12/08 04:18:47;;;;;;;16.67;11.07;;;;;;;;;;6245227;23;20008;-63
2022/12/08 04:21:13;;;;;;;19.20;10.10;;;;;;;;;;6244975;23;20007;-63
2022/12/08 04:23:40;;;;;;;17.27;10.07;;;;;;;;;;6244990;23;20008;-63
2022/12/08 04:26:06;;;;;;;15.88;9.70;;;;;;;;;;6244938;23;20427;-63
2022/12/08 04:28:32;;;;;;;16.27;9.98;;;;;;;;;;6245663;23;20423;-63
2022/12/08 04:30:58;;;;;;;15.30;8.95;;;;;;;;;;6245214;23;20012;-63
2022/12/08 04:33:24;;;;;;;18.73;9.93;;;;;;;;;;6244872;23;20014;-63
2022/12/08 04:35:51;;;;;;;14.88;9.38;;;;;;;;;;6244849;23;20000;-63
2022/12/08 04:38:17;;;;;;;19.73;11.05;;;;;;;;;;6244909;23;20006;-63
2022/12/08 04:40:43;;;;;;;16.67;10.48;;;;;;;;;;6245625;23;20000;-63
2022/12/08 04:43:09;;;;;;;18.73;11.77;;;;;;;;;;6245204;23;20039;-63
2022/12/08 04:45:35;;;;;;;16.98;11.98;;;;;;;;;;6245236;23;20008;-63
2022/12/08 04:48:02;;;;;;;17.80;11.57;;;;;;;;;;6243155;23;20014;-63
2022/12/08 04:50:29;;;;;;;18.08;12.30;;;;;;;;;;6245264;23;20031;-63
2022/12/08 04:52:55;;;;;;;19.40;11.35;;;;;;;;;;6245355;23;20371;-63
2022/12/08 04:55:21;;;;;;;20.02;10.85;;;;;;;;;;6244634;23;20121;-64
2022/12/08 04:57:47;;;;;;;18.98;11.05;;;;;;;;;;6245334;23;20043;-64
2022/12/08 05:00:14;;;;;;;16.55;10.65;;;;;;;;;;6244205;23;20405;-63
2022/12/08 05:02:40;;;;;;;18.48;10.93;;;;;;;;;;6244343;23;20027;-64
2022/12/08 05:05:06;;;;;;;14.00;10.40;;;;;;;;;;6244237;23;20031;-64
2022/12/08 05:07:32;;;;;;;18.67;11.32;;;;;;;;;;6244282;23;20003;-65
2022/12/08 05:09:58;;;;;;;19.45;10.30;;;;;;;;;;6244685;23;20050;-64
2022/12/08 05:12:25;;;;;;;14.73;10.57;;;;;;;;;;6244219;23;20012;-64
2022/12/08 05:14:51;;;;;;;19.58;10.48;;;;;;;;;;6244460;23;20004;-64
2022/12/08 05:17:17;;;;;;;20.17;11.82;;;;;;;;;;6243761;23;20000;-64
2022/12/08 05:19:44;;;;;;;18.05;11.95;;;;;;;;;;6244737;23;20422;-64
2022/12/08 05:22:10;;;;;;;18.27;11.15;;;;;;;;;;6244099;23;20008;-64
2022/12/08 05:24:37;;;;;;;20.10;11.63;;;;;;;;;;6244565;23;20003;-64
2022/12/08 05:27:03;;;;;;;18.83;11.18;;;;;;;;;;6243947;22;20463;-64
2022/12/08 05:29:29;;;;;;;19.08;11.40;;;;;;;;;;6244980;23;20003;-65
2022/12/08 05:31:55;;;;;;;16.65;11.25;;;;;;;;;;6244774;23;20015;-64
2022/12/08 05:34:21;;;;;;;19.52;12.13;;;;;;;;;;6244787;23;20004;-65
2022/12/08 05:36:47;;;;;;;16.52;11.20;;;;;;;;;;6244892;23;20058;-64
2022/12/08 05:39:14;;;;;;;17.30;11.52;;;;;;;;;;6245010;23;20443;-65
2022/12/08 05:41:41;;;;;;;18.33;12.73;;;;;;;;;;6243579;23;20020;-64
2022/12/08 05:44:07;;;;;;;20.05;13.00;;;;;;;;;;6245650;23;20439;-64
2022/12/08 05:46:33;;;;;;;21.08;13.32;;;;;;;;;;6245663;23;20426;-64
2022/12/08 05:49:00;;;;;;;18.98;11.73;;;;;;;;;;6244491;23;20079;-64
2022/12/08 05:51:27;;;;;;;19.23;12.88;;;;;;;;;;6245006;23;20005;-65
2022/12/08 05:53:53;;;;;;;25.67;13.60;;;;;;;;;;6246101;23;20015;-64
2022/12/08 05:56:20;;;;;;;22.05;13.85;;;;;;;;;;6245786;23;20354;-64
2022/12/08 05:58:46;;;;;;;24.35;14.38;;;;;;;;;;6245847;23;20419;-65
2022/12/08 06:01:38;;;;;;;19.20;13.35;;;;;;;;;;6244617;23;20000;-65
2022/12/08 06:04:04;;;;;;;25.92;13.00;;;;;;;;;;6240044;22;20015;-64
2022/12/08 06:06:31;;;;;;;17.95;11.73;;;;;;;;;;6245586;23;20004;-64
2022/12/08 06:08:57;;;;;;;16.60;12.50;;;;;;;;;;6245751;23;20370;-64
2022/12/08 06:11:24;;;;;;;18.15;12.10;;;;;;;;;;6244490;23;20058;-64
2022/12/08 06:13:51;;;;;;;18.23;11.88;;;;;;;;;;6243793;23;20008;-64
2022/12/08 06:16:17;;;;;;;18.63;12.80;;;;;;;;;;6244340;23;20023;-64
2022/12/08 06:18:43;;;;;;;20.27;11.65;;;;;;;;;;6244583;23;20010;-64
2022/12/08 06:21:10;;;;;;;19.80;10.55;;;;;;;;;;6243128;23;20007;-65
2022/12/08 06:23:37;;;;;;;21.15;10.93;;;;;;;;;;6244153;23;20074;-65
2022/12/08 06:26:03;;;;;;;13.73;10.10;;;;;;;;;;6244721;23;20012;-64
2022/12/08 06:28:30;;;;;;;18.23;11.35;;;;;;;;;;6243659;23;20370;-64
2022/12/08 06:30:56;;;;;;;17.95;11.18;;;;;;;;;;6244769;23;20015;-64
2022/12/08 06:33:22;;;;;;;19.02;11.18;;;;;;;;;;6245156;23;20061;-65
2022/12/08 06:35:48;;;;;;;15.60;10.38;;;;;;;;;;6245427;23;20494;-65
2022/12/08 06:38:14;;;;;;;17.23;11.02;;;;;;;;;;6244443;23;20004;-65
2022/12/08 06:40:40;;;;;;;17.05;11.52;;;;;;;;;;6244329;23;20027;-66
2022/12/08 06:43:06;;;;;;;19.10;11.23;;;;;;;;;;6243762;23;20324;-65
2022/12/08 06:45:33;;;;;;;20.20;10.70;;;;;;;;;;6244483;23;20028;-65
2022/12/08 06:48:00;;;;;;;14.75;10.55;;;;;;;;;;6243330;22;20008;-65
2022/12/08 06:50:27;;;;;;;14.45;9.98;;;;;;;;;;6244546;23;20004;-65
2022/12/08 06:52:53;;;;;;;16.30;10.95;;;;;;;;;;6243340;22;20093;-65
2022/12/08 06:55:19;;;;;;;16.88;9.65;;;;;;;;;;6244752;23;20063;-65
2022/12/08 06:57:45;;;;;;;18.65;11.23;;;;;;;;;;6243617;23;20008;-65
2022/12/08 07:00:12;;;;;;;15.50;10.27;;;;;;;;;;6244892;23;20000;-65
2022/12/08 07:02:38;;;;;;;15.95;10.73;;;;;;;;;;6243934;23;20008;-65
2022/12/08 07:05:04;;;;;;;19.30;10.57;;;;;;;;;;6243279;23;20004;-65
2022/12/08 07:07:30;;;;;;;16.52;11.05;;;;;;;;;;6243545;23;20375;-64
2022/12/08 07:09:56;;;;;;;18.50;10.68;;;;;;;;;;6243784;23;20004;-65
2022/12/08 07:12:22;;;;;;;19.45;10.13;;;;;;;;;;6242816;23;20034;-65
2022/12/08 07:14:48;;;;;;;18.50;11.57;;;;;;;;;;6244189;23;20087;-64
2022/12/08 07:17:15;;;;;;;18.85;10.75;;;;;;;;;;6244781;23;20023;-64
2022/12/08 07:19:41;;;;;;;13.73;10.02;;;;;;;;;;6244618;23;20403;-65
2022/12/08 07:22:07;;;;;;;16.67;10.70;;;;;;;;;;6245722;23;20023;-65
2022/12/08 07:24:33;;;;;;;15.48;10.25;;;;;;;;;;6245191;23;20055;-65
2022/12/08 07:26:59;;;;;;;19.02;10.90;;;;;;;;;;6244505;23;20011;-65
2022/12/08 07:29:25;;;;;;;20.35;10.55;;;;;;;;;;6244757;23;20004;-65
2022/12/08 07:31:51;;;;;;;13.70;10.57;;;;;;;;;;6244976;23;20465;-65
2022/12/08 07:34:17;;;;;;;22.52;12.48;;;;;;;;;;6245051;23;20007;-64
2022/12/08 07:36:43;;;;;;;22.98;13.27;;;;;;;;;;6245003;23;20001;-64
2022/12/08 07:39:09;;;;;;;23.10;13.13;;;;;;;;;;6245313;23;20315;-65
2022/12/08 07:41:36;;;;;;;25.13;14.68;;;;;;;;;;6244390;23;20000;-65
2022/12/08 07:44:03;;;;;;;22.25;13.90;;;;;;;;;;6245168;23;20026;-65
2022/12/08 07:46:29;;;;;;;21.48;14.10;;;;;;;;;;6244826;22;20008;-65
2022/12/08 07:48:56;;;;;;;21.65;14.07;;;;;;;;;;6244863;23;20082;-65
2022/12/08 07:51:23;;;;;;;19.70;12.40;;;;;;;;;;6244862;22;20079;-65
2022/12/08 07:53:50;;;;;;;23.70;12.55;;;;;;;;;;6245062;22;20451;-65
2022/12/08 07:56:17;;;;;;;24.08;14.57;;;;;;;;;;6244549;23;20006;-65
2022/12/08 07:58:45;;;;;;;22.30;12.77;;;;;;;;;;6244849;22;20006;-65
2022/12/08 08:01:41;;;;;;;18.63;11.95;;;;;;;;;;6245036;22;20071;-65
2022/12/08 08:04:07;;;;;;;23.63;13.88;;;;;;;;;;6219613;22;20008;-65
2022/12/08 08:06:35;;;;;;;19.10;10.98;;;;;;;;;;6244577;23;20010;-65
2022/12/08 08:09:01;;;;;;;16.88;10.98;;;;;;;;;;6244905;23;20000;-65
2022/12/08 08:11:27;;;;;;;22.45;12.30;;;;;;;;;;6244609;23;20335;-65
2022/12/08 08:13:54;;;;;;;20.13;12.45;;;;;;;;;;6244632;23;20524;-65
2022/12/08 08:16:20;;;;;;;19.58;12.82;;;;;;;;;;6244448;23;20011;-65
2022/12/08 08:18:49;;;;;;;23.73;13.50;;;;;;;;;;6244453;23;20426;-65
2022/12/08 08:21:16;;;;;;;24.90;13.02;;;;;;;;;;6244931;23;20058;-65
2022/12/08 08:23:42;;;;;;;22.83;12.93;;;;;;;;;;6244426;23;20446;-64
2022/12/08 08:26:08;;;;;;;21.58;12.85;;;;;;;;;;6244277;23;20569;-65
2022/12/08 08:28:34;;;;;;;22.65;12.13;;;;;;;;;;6244353;23;20343;-65
2022/12/08 08:31:02;;;;;;;23.42;13.30;;;;;;;;;;6244454;23;20011;-65
2022/12/08 08:33:28;;;;;;;22.63;13.85;;;;;;;;;;6244421;23;20012;-64
2022/12/08 08:35:54;;;;;;;23.08;13.05;;;;;;;;;;6244538;23;20102;-65
2022/12/08 08:38:20;;;;;;;21.83;13.38;;;;;;;;;;6244642;23;20004;-64
2022/12/08 08:40:47;;;;;;;24.73;14.20;;;;;;;;;;6243768;23;20007;-65
2022/12/08 08:43:27;;;;;;;24.90;13.25;;;;;;;;;;6244659;23;20345;-65
2022/12/08 08:45:58;;;;;;;29.95;17.17;;;;;;;;;;6244500;23;20011;-65
2022/12/08 08:48:24;;;;;;;30.85;18.48;;;;;;;;;;6244700;23;20086;-65
2022/12/08 08:50:51;;;;;;;40.22;22.90;;;;;;;;;;6244434;22;20015;-65
2022/12/08 08:53:17;;;;;;;36.95;21.95;;;;;;;;;;6244205;23;20000;-65
2022/12/08 08:55:43;;;;;;;37.35;20.83;;;;;;;;;;6244072;23;20485;-65
2022/12/08 08:58:09;;;;;;;38.30;20.92;;;;;;;;;;6244583;23;20001;-65
2022/12/08 09:00:35;;;;;;;38.97;21.70;;;;;;;;;;6244087;23;20032;-65
2022/12/08 09:03:01;;;;;;;48.85;24.15;;;;;;;;;;6244634;23;20008;-64
2022/12/08 09:05:27;;;;;;;37.50;20.38;;;;;;;;;;6244005;23;20454;-65
2022/12/08 09:07:53;;;;;;;54.78;28.38;;;;;;;;;;6243935;23;20007;-65
2022/12/08 09:10:21;;;;;;;63.67;33.67;;;;;;;;;;6244394;23;20066;-65
2022/12/08 09:12:47;;;;;;;45.42;26.42;;;;;;;;;;6243796;23;20018;-65
2022/12/08 09:15:13;;;;;;;33.20;20.13;;;;;;;;;;6244446;23;20008;-65
2022/12/08 09:17:39;;;;;;;24.92;16.52;;;;;;;;;;6244029;23;20008;-65
2022/12/08 09:20:06;;;;;;;21.75;13.90;;;;;;;;;;6244361;23;20053;-65
2022/12/08 09:22:32;;;;;;;27.85;13.82;;;;;;;;;;6244121;23;20016;-65
2022/12/08 09:24:58;;;;;;;25.98;14.80;;;;;;;;;;6244257;23;20090;-65
2022/12/08 09:27:25;;;;;;;30.75;16.52;;;;;;;;;;6244353;23;20021;-64
2022/12/08 09:29:51;;;;;;;8.77;5.50;;;;;;;;;;6244091;23;20008;-65
2022/12/08 09:32:17;;;;;;;8.68;3.55;;;;;;;;;;6244175;23;20052;-64
2022/12/08 09:34:44;;;;;;;5.68;2.60;;;;;;;;;;6244096;23;20004;-65
2022/12/08 09:37:10;;;;;;;9.80;3.13;;;;;;;;;;6244161;23;19996;-65
2022/12/08 09:39:36;;;;;;;5.72;1.85;;;;;;;;;;6244103;23;20011;-64
2022/12/08 09:42:03;;;;;;;2.10;1.50;;;;;;;;;;6244114;23;20019;-65
2022/12/08 09:44:30;;;;;;;2.30;1.20;;;;;;;;;;6244335;23;20000;-64
2022/12/08 09:46:58;;;;;;;2.70;1.20;;;;;;;;;;6244156;23;20050;-64
2022/12/08 09:49:32;;;;;;;7.28;1.10;;;;;;;;;;6244372;23;20102;-64
2022/12/08 09:51:59;;;;;;;2.97;1.00;;;;;;;;;;6243718;23;20438;-64
2022/12/08 09:54:29;;;;;;;3.60;1.00;;;;;;;;;;6244659;23;20320;-65
2022/12/08 09:56:55;;;;;;;1.45;1.00;;;;;;;;;;6243859;23;20001;-64
2022/12/08 09:59:21;;;;;;;2.08;0.80;;;;;;;;;;6244271;23;19996;-64
2022/12/08 10:01:48;;;;;;;0.98;0.77;;;;;;;;;;6244034;23;20012;-64
2022/12/08 10:04:22;;;;;;;1.98;0.70;;;;;;;;;;6244196;23;20011;-64
2022/12/08 10:07:04;;;;;;;2.83;1.00;;;;;;;;;;6243550;22;20023;-64
2022/12/08 10:09:39;;;;;;;1.58;0.75;;;;;;;;;;6244161;23;20004;-64
2022/12/08 10:12:17;;;;;;;6.35;1.08;;;;;;;;;;6244038;23;20008;-64
2022/12/08 10:14:45;;;;;;;2.08;0.70;;;;;;;;;;6245798;23;20008;-64
2022/12/08 10:17:17;;;;;;;2.03;0.90;;;;;;;;;;6246102;23;20001;-64
2022/12/08 10:19:45;;;;;;;3.42;0.82;;;;;;;;;;6245688;23;20005;-64
2022/12/08 10:22:19;;;;;;;3.47;0.90;;;;;;;;;;6245567;22;20004;-64
2022/12/08 10:24:57;;;;;;;3.92;0.90;;;;;;;;;;6245623;23;20004;-64
2022/12/08 10:27:24;;;;;;;5.68;1.02;;;;;;;;;;6246061;22;20007;-64
2022/12/08 10:29:50;;;;;;;1.27;0.57;;;;;;;;;;6245552;22;20000;-64
2022/12/08 10:32:18;;;;;;;4.30;0.80;;;;;;;;;;6245673;23;20000;-65
2022/12/08 10:35:02;;;;;;;2.25;0.73;;;;;;;;;;6245139;23;20007;-64
2022/12/08 10:37:28;;;;;;;3.25;0.90;;;;;;;;;;6245839;23;20042;-64
2022/12/08 10:40:11;;;;;;;2.28;0.88;;;;;;;;;;6245674;22;19996;-64
2022/12/08 10:42:43;;;;;;;1.67;0.90;;;;;;;;;;6245582;23;20127;-64
2022/12/08 10:45:09;;;;;;;4.40;0.88;;;;;;;;;;6245546;22;20510;-64
2022/12/08 10:47:37;;;;;;;0.88;0.70;;;;;;;;;;6245690;23;20000;-64
2022/12/08 10:50:20;;;;;;;1.33;0.80;;;;;;;;;;6245322;23;20469;-64
2022/12/08 10:52:46;;;;;;;;;;;;;;;;;;6245791;23;20354;-64
2022/12/08 10:55:14;;;;;;;2.67;1.10;;;;;;;;;;6245323;23;19903;-64
2022/12/08 10:57:40;;;;;;;2.85;0.73;;;;;;;;;;6245377;22;20008;-64
2022/12/08 11:00:06;;;;;;;3.78;0.80;;;;;;;;;;6245402;23;19996;-64
2022/12/08 11:02:33;;;;;;;4.75;0.73;;;;;;;;;;6245698;23;20012;-64
2022/12/08 11:04:59;;;;;;;0.95;0.60;;;;;;;;;;6244734;23;20008;-64
2022/12/08 11:07:26;;;;;;;2.17;1.02;;;;;;;;;;6245445;23;20015;-64
2022/12/08 11:09:57;;;;;;;3.95;0.50;;;;;;;;;;6245314;23;20004;-64
2022/12/08 11:12:26;;;;;;;0.77;0.50;;;;;;;;;;6245241;23;20046;-64
2022/12/08 11:14:59;;;;;;;1.10;0.55;;;;;;;;;;6245258;23;20071;-64
2022/12/08 11:17:27;;;;;;;4.10;1.98;;;;;;;;;;6245290;23;20007;-64
2022/12/08 11:20:01;;;;;;;4.22;0.70;;;;;;;;;;6244820;22;20087;-64
2022/12/08 11:22:36;;;;;;;2.17;0.50;;;;;;;;;;6245537;23;20012;-64
2022/12/08 11:25:02;;;;;;;0.60;0.50;;;;;;;;;;6244612;23;20095;-64
2022/12/08 11:27:29;;;;;;;2.92;0.75;;;;;;;;;;6245367;23;20039;-64
2022/12/08 11:29:55;;;;;;;1.40;0.55;;;;;;;;;;6244879;23;20446;-64
2022/12/08 11:32:22;;;;;;;1.98;0.70;;;;;;;;;;6245089;23;20127;-64
2022/12/08 11:35:00;;;;;;;3.95;0.70;;;;;;;;;;6244809;23;20011;-64
2022/12/08 11:37:38;;;;;;;4.15;0.68;;;;;;;;;;6245102;23;20786;-64
2022/12/08 11:40:13;;;;;;;0.93;0.60;;;;;;;;;;6245026;23;20004;-64
2022/12/08 11:42:55;;;;;;;1.25;0.80;;;;;;;;;;6245615;23;20346;-64
2022/12/08 11:45:25;;;;;;;3.17;0.95;;;;;;;;;;6245320;23;20042;-64
2022/12/08 11:48:06;;;;;;;1.30;0.60;;;;;;;;;;6244535;23;20477;-64
2022/12/08 11:50:42;;;;;;;2.30;0.77;;;;;;;;;;6245239;23;20465;-64
2022/12/08 11:53:34;;;;;;;3.60;0.70;;;;;;;;;;6244860;22;20013;-64
2022/12/08 11:56:03;;;;;;;1.35;0.75;;;;;;;;;;6239486;23;20005;-64
2022/12/08 11:58:41;;;;;;;2.03;0.70;;;;;;;;;;6245104;23;19997;-64
2022/12/08 12:01:16;;;;;;;4.15;0.50;;;;;;;;;;6244700;23;20004;-64
2022/12/08 12:03:46;;;;;;;4.63;0.75;;;;;;;;;;6244706;23;20008;-64
2022/12/08 12:06:23;;;;;;;1.10;0.60;;;;;;;;;;6244796;23;20004;-64
2022/12/08 12:09:04;;;;;;;1.55;0.60;;;;;;;;;;6244724;23;20008;-64
2022/12/08 12:14:15;;;;;;;4.60;0.60;;;;;;;;;;6244518;23;20008;-64
2022/12/08 12:16:41;;;;;;;1.00;0.47;;;;;;;;;;6244570;23;20011;-64
2022/12/08 12:19:14;;;;;;;0.73;0.55;;;;;;;;;;6244683;23;20443;-64
2022/12/08 12:21:43;;;;;;;6.35;0.80;;;;;;;;;;6244753;23;20000;-64
2022/12/08 12:24:15;;;;;;;1.70;0.63;;;;;;;;;;6244556;23;20000;-64
2022/12/08 12:26:55;;;;;;;1.70;0.60;;;;;;;;;;6244939;23;20004;-64
2022/12/08 12:29:22;;;;;;;2.42;0.73;;;;;;;;;;6244774;23;20082;-64
2022/12/08 12:31:53;;;;;;;2.33;0.70;;;;;;;;;;6244445;22;20015;-64
2022/12/08 12:34:25;;;;;;;4.55;0.70;;;;;;;;;;6244154;23;20011;-64
2022/12/08 12:36:56;;;;;;;1.25;0.70;;;;;;;;;;6244708;23;20075;-64
2022/12/08 12:39:24;;;;;;;1.00;0.50;;;;;;;;;;6244638;23;20013;-64
2022/12/08 12:41:53;;;;;;;5.38;0.75;;;;;;;;;;6243649;22;20004;-64
2022/12/08 12:44:35;;;;;;;3.10;0.80;;;;;;;;;;6244112;23;20033;-64
2022/12/08 12:47:02;;;;;;;3.15;0.60;;;;;;;;;;6243993;23;20450;-64
2022/12/08 12:49:42;;;;;;;4.38;0.70;;;;;;;;;;6243803;23;20453;-64
2022/12/08 12:52:14;;;;;;;1.20;0.57;;;;;;;;;;6242952;22;20019;-64
2022/12/08 12:54:44;;;;;;;3.55;0.80;;;;;;;;;;6243343;23;20083;-64
2022/12/08 12:57:10;;;;;;;6.93;0.50;;;;;;;;;;6243554;23;20455;-65
2022/12/08 12:59:41;;;;;;;3.70;0.60;;;;;;;;;;6242155;23;20023;-64
2022/12/08 13:02:19;;;;;;;1.80;0.95;;;;;;;;;;6241838;22;20054;-64
2022/12/08 13:04:54;;;;;;;0.98;0.65;;;;;;;;;;6242462;23;20397;-65
2022/12/08 13:07:21;;;;;;;3.97;0.73;;;;;;;;;;6241542;23;20012;-64
2022/12/08 13:09:55;;;;;;;2.60;0.50;;;;;;;;;;6242394;23;20070;-64
2022/12/08 13:12:23;;;;;;;6.15;0.88;;;;;;;;;;6242654;23;20323;-64
2022/12/08 13:14:50;;;;;;;2.47;0.63;;;;;;;;;;6244028;23;20075;-64
2022/12/08 13:17:25;;;;;;;2.55;0.50;;;;;;;;;;6244169;22;20001;-64
2022/12/08 13:19:54;;;;;;;3.92;0.85;;;;;;;;;;6244565;23;20074;-64
2022/12/08 13:22:38;;;;;;;3.50;0.60;;;;;;;;;;6244015;23;20512;-64
2022/12/08 13:25:23;;;;;;;0.63;0.50;;;;;;;;;;6244230;23;20434;-64
2022/12/08 13:27:53;;;;;;;1.30;0.90;;;;;;;;;;6244509;23;20007;-64
2022/12/08 13:30:51;;;;;;;1.23;0.60;;;;;;;;;;6243422;23;20441;-64
2022/12/08 13:33:41;;;;;;;1.30;0.88;;;;;;;;;;6122065;23;20352;-64
2022/12/08 13:36:07;;;;;;;1.85;0.60;;;;;;;;;;6111090;23;20016;-64
2022/12/08 13:38:36;;;;;;;5.28;0.82;;;;;;;;;;6122300;23;20006;-64
2022/12/08 13:41:04;;;;;;;1.58;0.80;;;;;;;;;;6121990;23;20033;-64
2022/12/08 13:43:47;;;;;;;2.40;0.70;;;;;;;;;;6121694;23;20006;-64
2022/12/08 13:46:13;;;;;;;;;;;;;;;;;;6120154;23;20151;-64
2022/12/08 13:48:48;;;;;;;2.72;0.73;;;;;;;;;;6123581;23;19971;-64
2022/12/08 13:51:20;;;;;;;2.20;0.60;;;;;;;;;;6123956;23;20010;-64
2022/12/08 13:54:00;;;;;;;3.50;1.13;;;;;;;;;;6124250;23;20009;-64
2022/12/08 13:56:27;;;;;;;1.13;0.65;;;;;;;;;;6123942;23;20515;-64
2022/12/08 13:59:06;;;;;;;1.42;0.68;;;;;;;;;;6123619;23;20002;-64
2022/12/08 14:01:33;;;;;;;2.40;0.80;;;;;;;;;;6123954;23;20006;-64
2022/12/08 14:03:59;;;;;;;2.50;0.80;;;;;;;;;;6124052;23;20114;-64
2022/12/08 14:06:30;;;;;;;2.70;0.60;;;;;;;;;;6123715;23;20115;-64
2022/12/08 14:08:58;;;;;;;2.72;0.98;;;;;;;;;;6189305;23;20067;-64
2022/12/08 14:11:32;;;;;;;0.80;0.70;;;;;;;;;;6245913;23;20449;-64
2022/12/08 14:14:09;;;;;;;2.83;0.95;;;;;;;;;;6245504;23;20012;-64
2022/12/08 14:16:36;;;;;;;4.03;1.35;;;;;;;;;;6246186;22;20004;-64
2022/12/08 14:19:04;;;;;;;2.72;0.80;;;;;;;;;;6245794;23;19996;-64
2022/12/08 14:21:30;;;;;;;1.88;0.80;;;;;;;;;;6245895;23;20338;-64
2022/12/08 14:24:00;;;;;;;2.60;0.85;;;;;;;;;;6246202;23;20001;-64
2022/12/08 14:26:30;;;;;;;1.33;0.77;;;;;;;;;;6245854;22;20008;-64
2022/12/08 14:28:56;;;;;;;5.45;0.90;;;;;;;;;;6245491;23;20316;-64
2022/12/08 14:31:22;;;;;;;1.10;0.77;;;;;;;;;;6245469;23;20747;-64
2022/12/08 14:33:48;;;;;;;2.10;0.88;;;;;;;;;;6245813;23;20012;-64
2022/12/08 14:36:15;;;;;;;4.18;1.15;;;;;;;;;;6245829;23;20338;-64
2022/12/08 14:38:41;;;;;;;3.88;1.45;;;;;;;;;;6246029;22;20000;-64
2022/12/08 14:41:08;;;;;;;3.55;1.25;;;;;;;;;;6245575;22;20079;-64
2022/12/08 14:43:35;;;;;;;2.50;1.60;;;;;;;;;;6245270;23;20063;-64